Time;durP1;ratioP1;P1;durP2;ratioP2;P2;SDS_P1;SDS_P2;PMS_P1;PMS_P2;Temp;Humidity;BMP_temperature;BMP_pressure;BME280_temperature;BME280_humidity;BME280_pressure;Samples;Min_cycle;Max_cycle;Signal;HPM_P1;HPM_P2
2022/07/01 04:01:43;;;;;;;9.90;9.10;;;20.30;99.90;;;;;;5391887;23;20578;-67
2022/07/01 04:04:10;;;;;;;10.70;9.80;;;20.20;99.90;;;;;;4971494;28;20463;-68
2022/07/01 04:06:37;;;;;;;10.43;9.63;;;20.10;99.90;;;;;;4971797;28;20464;-68
2022/07/01 04:09:04;;;;;;;10.80;9.90;;;20.20;99.90;;;;;;4971331;28;20467;-68
2022/07/01 04:11:32;;;;;;;10.07;9.33;;;20.20;99.90;;;;;;4971497;28;20855;-69
2022/07/01 04:13:59;;;;;;;11.07;10.13;;;20.10;99.90;;;;;;4970806;28;20487;-68
2022/07/01 04:16:26;;;;;;;10.77;9.80;;;20.20;99.90;;;;;;4985294;23;20510;-67
2022/07/01 04:18:54;;;;;;;10.60;9.73;;;20.20;99.90;;;;;;4971352;28;20463;-67
2022/07/01 04:24:05;;;;;;;9.87;9.07;;;20.20;99.90;;;;;;4971513;28;20831;-67
2022/07/01 04:26:32;;;;;;;9.43;8.73;;;20.20;99.90;;;;;;4971817;28;20858;-67
2022/07/01 04:28:59;;;;;;;8.17;7.50;;;20.20;99.90;;;;;;4970996;28;20463;-67
2022/07/01 04:31:26;;;;;;;8.07;7.47;;;20.20;99.90;;;;;;4971542;28;20467;-67
2022/07/01 04:33:54;;;;;;;7.30;6.87;;;20.10;99.90;;;;;;4971402;28;20499;-67
2022/07/01 04:36:21;;;;;;;6.73;6.23;;;20.10;99.90;;;;;;4971236;28;20491;-67
2022/07/01 04:38:47;;;;;;;6.80;6.30;;;20.00;99.90;;;;;;4971218;28;20471;-66
2022/07/01 04:43:58;;;;;;;7.53;6.93;;;20.00;99.90;;;;;;4974250;28;20459;-68
2022/07/01 04:46:25;;;;;;;8.20;7.50;;;20.00;99.90;;;;;;4974859;28;20553;-67
2022/07/01 04:48:54;;;;;;;9.17;8.37;;;19.90;99.90;;;;;;4974815;28;20626;-67
2022/07/01 04:51:20;;;;;;;11.57;10.60;;;19.70;99.90;;;;;;4970945;28;20953;-67
2022/07/01 04:53:47;;;;;;;13.03;11.93;;;19.60;99.90;;;;;;4962705;28;20480;-68
2022/07/01 04:56:14;;;;;;;12.80;11.80;;;19.50;99.90;;;;;;4955208;28;20492;-68
2022/07/01 04:58:40;;;;;;;13.63;12.43;;;19.40;99.90;;;;;;4956024;28;20552;-68
2022/07/01 05:01:07;;;;;;;17.00;13.07;;;19.30;99.90;;;;;;4954920;28;20472;-68
2022/07/01 05:03:34;;;;;;;15.97;14.30;;;19.20;99.90;;;;;;4955367;28;20460;-68
2022/07/01 05:06:02;;;;;;;16.00;14.60;;;19.10;99.90;;;;;;4955171;28;20496;-68
2022/07/01 05:08:29;;;;;;;15.90;14.50;;;19.00;99.90;;;;;;4955400;28;20468;-68
2022/07/01 05:10:56;;;;;;;17.30;15.60;;;18.90;99.90;;;;;;4954439;28;20909;-68
2022/07/01 05:13:23;;;;;;;18.90;16.97;;;18.80;99.90;;;;;;4955096;28;20488;-69
2022/07/01 05:15:50;;;;;;;18.73;16.80;;;18.70;99.90;;;;;;4954764;28;20500;-68
2022/07/01 05:23:46;;;;;;;19.80;17.50;;;18.50;99.90;;;;;;4954942;29;20448;-68
2022/07/01 05:26:16;;;;;;;19.07;17.17;;;18.50;99.90;;;;;;4954538;28;20564;-67
2022/07/01 05:28:43;;;;;;;15.17;12.90;;;18.40;99.90;;;;;;4957746;28;20527;-68
2022/07/01 05:31:10;;;;;;;12.13;11.03;;;18.30;99.90;;;;;;4955383;28;20469;-68
2022/07/01 05:33:37;;;;;;;11.63;10.47;;;18.30;99.90;;;;;;4955271;28;20493;-68
2022/07/01 05:36:05;;;;;;;10.03;9.13;;;18.30;99.90;;;;;;4954890;28;20495;-68
2022/07/01 05:38:32;;;;;;;11.17;8.80;;;18.20;99.90;;;;;;4954663;28;20472;-68
2022/07/01 05:40:59;;;;;;;9.93;8.97;;;18.20;99.90;;;;;;4959562;28;20503;-68
2022/07/01 05:43:25;;;;;;;9.53;8.60;;;18.10;99.90;;;;;;4956978;28;20926;-68
2022/07/01 05:45:52;;;;;;;9.33;8.53;;;18.10;99.90;;;;;;4954340;28;20484;-68
2022/07/01 05:48:19;;;;;;;9.50;8.63;;;18.10;99.90;;;;;;4955018;28;20471;-68
2022/07/01 05:50:46;;;;;;;9.67;8.77;;;18.10;99.90;;;;;;4954434;28;20464;-68
2022/07/01 05:53:15;;;;;;;8.60;7.80;;;18.10;99.90;;;;;;4953832;28;20539;-68
2022/07/01 05:55:41;;;;;;;6.90;6.30;;;18.00;99.90;;;;;;4953978;28;20493;-68
2022/07/01 05:58:09;;;;;;;6.37;5.87;;;18.10;99.90;;;;;;4954664;28;20544;-67
2022/07/01 06:00:36;;;;;;;5.17;4.77;;;18.10;99.90;;;;;;4953867;28;20559;-67
2022/07/01 06:03:03;;;;;;;5.90;5.40;;;18.00;99.90;;;;;;4954939;28;20961;-68
2022/07/01 06:05:30;;;;;;;4.47;4.07;;;17.90;99.90;;;;;;4954518;28;20491;-68
2022/07/01 06:07:57;;;;;;;3.57;3.40;;;17.90;99.90;;;;;;4954265;28;20792;-67
2022/07/01 06:10:25;;;;;;;3.60;3.40;;;17.80;99.90;;;;;;4953611;28;20821;-68
2022/07/01 06:12:52;;;;;;;1.90;1.80;;;17.60;99.90;;;;;;4954343;28;20465;-68
2022/07/01 06:15:19;;;;;;;1.70;1.70;;;17.50;99.90;;;;;;4953454;28;20492;-68
2022/07/01 06:17:45;;;;;;;1.10;1.10;;;17.50;99.90;;;;;;4953924;28;20511;-69
2022/07/01 06:20:12;;;;;;;2.20;1.10;;;17.40;99.90;;;;;;4953694;28;20464;-68
2022/07/01 06:22:39;;;;;;;3.60;1.23;;;17.30;99.90;;;;;;4954066;28;20464;-68
2022/07/01 06:25:06;;;;;;;1.03;1.03;;;17.40;99.90;;;;;;4953344;28;20978;-68
2022/07/01 06:27:39;;;;;;;1.23;1.23;;;17.40;99.90;;;;;;4954150;28;20809;-68
2022/07/01 06:30:06;;;;;;;1.20;1.20;;;17.40;99.90;;;;;;4952736;28;20472;-68
2022/07/01 06:32:33;;;;;;;1.30;1.30;;;17.30;99.90;;;;;;4953361;28;20469;-68
2022/07/01 06:35:00;;;;;;;0.90;0.90;;;17.40;99.90;;;;;;4952925;28;20504;-68
2022/07/01 06:37:27;;;;;;;1.30;1.30;;;17.40;99.90;;;;;;4953481;28;20472;-68
2022/07/01 06:39:54;;;;;;;1.63;1.60;;;17.40;99.90;;;;;;4952519;28;20464;-68
2022/07/01 06:42:21;;;;;;;1.60;1.50;;;17.40;99.90;;;;;;4953436;28;20468;-68
2022/07/01 06:44:49;;;;;;;1.37;1.37;;;17.50;99.90;;;;;;4952239;28;20572;-68
2022/07/01 06:47:16;;;;;;;1.37;1.37;;;17.50;99.90;;;;;;4953213;28;20814;-68
2022/07/01 06:49:42;;;;;;;2.20;1.97;;;17.50;99.90;;;;;;4952454;28;20456;-67
2022/07/01 06:52:09;;;;;;;1.73;1.63;;;17.60;99.90;;;;;;4953163;28;20468;-68
2022/07/01 06:54:37;;;;;;;1.77;1.77;;;17.60;99.90;;;;;;4952014;28;20489;-68
2022/07/01 06:57:05;;;;;;;1.87;1.80;;;17.50;99.90;;;;;;4953184;28;20473;-68
2022/07/01 06:59:32;;;;;;;1.73;1.67;;;17.60;99.90;;;;;;4952263;28;20464;-67
2022/07/01 07:02:00;;;;;;;2.83;2.20;;;17.70;99.90;;;;;;4952809;28;20460;-68
2022/07/01 07:04:26;;;;;;;1.73;1.73;;;17.80;99.90;;;;;;4953256;28;20954;-68
2022/07/01 07:06:53;;;;;;;1.77;1.70;;;17.80;99.90;;;;;;4952447;28;20468;-68
2022/07/01 07:09:20;;;;;;;1.83;1.83;;;17.90;99.90;;;;;;4952382;28;20460;-67
2022/07/01 07:11:46;;;;;;;1.73;1.73;;;17.90;99.90;;;;;;4952604;28;20899;-67
2022/07/01 07:14:13;;;;;;;2.37;2.27;;;17.90;99.90;;;;;;4952220;28;20489;-68
2022/07/01 07:16:40;;;;;;;2.20;2.20;;;18.00;99.90;;;;;;4952212;28;20531;-68
2022/07/01 07:19:09;;;;;;;2.20;2.00;;;17.90;99.90;;;;;;4952174;28;20488;-68
2022/07/01 07:21:36;;;;;;;2.17;2.07;;;17.90;99.90;;;;;;4962391;28;20468;-67
2022/07/01 07:24:03;;;;;;;3.10;2.90;;;17.90;99.90;;;;;;4971340;28;20490;-68
2022/07/01 07:26:30;;;;;;;3.37;3.20;;;17.80;99.90;;;;;;4971088;28;20490;-68
2022/07/01 07:28:56;;;;;;;2.97;2.97;;;17.80;99.90;;;;;;4970755;28;20847;-68
2022/07/01 07:31:23;;;;;;;2.47;2.43;;;17.80;99.90;;;;;;4970912;28;20468;-67
2022/07/01 07:33:50;;;;;;;2.43;2.43;;;17.80;99.90;;;;;;4971019;28;20491;-68
2022/07/01 07:36:18;;;;;;;2.90;2.80;;;17.90;99.90;;;;;;4971478;28;20488;-68
2022/07/01 07:38:44;;;;;;;3.00;2.80;;;17.90;99.90;;;;;;4972147;28;20478;-68
2022/07/01 07:41:12;;;;;;;3.03;2.93;;;17.90;99.90;;;;;;4971092;28;20472;-68
2022/07/01 07:43:38;;;;;;;4.73;4.53;;;17.90;99.90;;;;;;4971842;28;20463;-68
2022/07/01 07:46:05;;;;;;;3.77;3.67;;;17.90;99.90;;;;;;4971254;28;20483;-68
2022/07/01 07:48:32;;;;;;;4.03;3.93;;;17.90;99.90;;;;;;4971749;28;20530;-68
2022/07/01 07:50:59;;;;;;;5.10;4.70;;;17.80;99.90;;;;;;4971694;28;20463;-68
2022/07/01 07:53:27;;;;;;;5.60;5.30;;;17.80;99.90;;;;;;4971811;28;20460;-68
2022/07/01 07:55:53;;;;;;;6.90;6.30;;;17.70;99.90;;;;;;4971250;28;20867;-68
2022/07/01 07:58:20;;;;;;;5.00;4.70;;;17.60;99.90;;;;;;4971608;28;20463;-68
2022/07/01 08:00:47;;;;;;;5.43;5.23;;;17.60;99.90;;;;;;4971106;28;20467;-68
2022/07/01 08:03:13;;;;;;;4.47;4.17;;;17.50;99.90;;;;;;4971599;28;20491;-68
2022/07/01 08:05:40;;;;;;;5.27;5.00;;;17.50;99.90;;;;;;4971491;28;20829;-68
2022/07/01 08:08:07;;;;;;;4.67;4.57;;;17.50;99.90;;;;;;4971895;28;20464;-67
2022/07/01 08:10:35;;;;;;;4.67;4.37;;;17.50;99.90;;;;;;4959435;28;20468;-68
2022/07/01 08:13:04;;;;;;;5.13;4.60;;;17.60;99.90;;;;;;4952360;28;20468;-68
2022/07/01 08:15:31;;;;;;;3.63;3.57;;;17.60;99.90;;;;;;4951813;28;20503;-68
2022/07/01 08:17:57;;;;;;;3.63;3.40;;;17.60;99.90;;;;;;4955853;28;20470;-68
2022/07/01 08:20:24;;;;;;;3.30;3.10;;;17.70;99.90;;;;;;4956025;28;20853;-68
2022/07/01 08:22:51;;;;;;;3.20;3.10;;;17.70;99.90;;;;;;4956046;28;20468;-68
2022/07/01 08:25:18;;;;;;;3.97;3.87;;;17.70;99.90;;;;;;4955565;28;20476;-68
2022/07/01 08:27:46;;;;;;;3.90;3.57;;;17.70;99.90;;;;;;4956850;28;20472;-67
2022/07/01 08:30:13;;;;;;;4.33;3.07;;;17.80;99.90;;;;;;4955613;28;20464;-68
2022/07/01 08:32:39;;;;;;;3.10;3.00;;;17.70;99.90;;;;;;4956352;28;20476;-67
2022/07/01 08:35:07;;;;;;;3.73;3.50;;;17.80;99.90;;;;;;4956374;28;20573;-67
2022/07/01 08:37:33;;;;;;;3.33;3.33;;;17.80;99.90;;;;;;4956059;28;20464;-68
2022/07/01 08:40:00;;;;;;;3.90;3.33;;;17.80;99.90;;;;;;4955116;28;20468;-68
2022/07/01 08:42:27;;;;;;;2.90;2.80;;;17.80;99.90;;;;;;4956471;28;20472;-68
2022/07/01 08:44:55;;;;;;;3.17;3.07;;;17.90;99.90;;;;;;4955499;28;20851;-68
2022/07/01 08:47:21;;;;;;;3.57;3.47;;;17.90;99.90;;;;;;4956016;28;20468;-68
2022/07/01 08:49:48;;;;;;;3.37;3.17;;;18.00;99.90;;;;;;4955687;28;20460;-67
2022/07/01 08:52:15;;;;;;;2.97;2.97;;;18.10;99.90;;;;;;4956098;28;20472;-68
2022/07/01 08:54:42;;;;;;;2.80;2.80;;;18.20;99.90;;;;;;4955049;28;20492;-67
2022/07/01 08:57:09;;;;;;;3.23;3.10;;;18.20;99.90;;;;;;4955982;28;20483;-68
2022/07/01 08:59:36;;;;;;;2.80;2.77;;;18.30;99.90;;;;;;4965261;28;20848;-68
2022/07/01 09:02:06;;;;;;;2.70;2.50;;;18.40;99.90;;;;;;4974877;28;20669;-68
2022/07/01 09:04:33;;;;;;;2.80;2.60;;;18.50;99.90;;;;;;4974798;28;20470;-68
2022/07/01 09:07:04;;;;;;;3.00;2.90;;;18.50;99.90;;;;;;4974806;28;20468;-68
2022/07/01 09:09:35;;;;;;;2.70;2.70;;;18.60;99.90;;;;;;4973997;28;20467;-69
2022/07/01 09:12:02;;;;;;;3.10;3.00;;;18.50;99.90;;;;;;4974764;28;20918;-68
2022/07/01 09:14:30;;;;;;;3.40;3.10;;;18.40;99.90;;;;;;4974024;28;20487;-68
2022/07/01 09:16:58;;;;;;;3.40;3.20;;;18.30;99.90;;;;;;4974358;28;20498;-67
2022/07/01 09:19:29;;;;;;;3.30;3.10;;;18.20;99.90;;;;;;4974249;28;20577;-67
2022/07/01 09:21:58;;;;;;;3.33;3.23;;;18.10;99.90;;;;;;4974135;28;20471;-67
2022/07/01 09:24:28;;;;;;;2.60;2.60;;;18.00;99.90;;;;;;4973632;28;20464;-67
2022/07/01 09:26:56;;;;;;;3.20;3.10;;;18.00;99.90;;;;;;4974346;28;20494;-67
2022/07/01 09:29:28;;;;;;;3.07;2.97;;;18.00;99.90;;;;;;4973254;28;20475;-67
2022/07/01 09:31:54;;;;;;;3.03;2.90;;;18.10;99.90;;;;;;4961121;28;20950;-68
2022/07/01 09:34:22;;;;;;;3.80;3.70;;;18.10;99.90;;;;;;4954487;28;20480;-68
2022/07/01 09:36:55;;;;;;;3.70;3.50;;;18.20;99.90;;;;;;4955215;28;20502;-68
2022/07/01 09:39:23;;;;;;;3.87;3.57;;;18.20;99.90;;;;;;4954400;28;20472;-68
2022/07/01 09:41:50;;;;;;;4.07;3.90;;;18.10;99.90;;;;;;4954734;28;20663;-68
2022/07/01 09:44:16;;;;;;;3.13;3.03;;;18.00;99.90;;;;;;4954274;28;20471;-68
2022/07/01 09:46:54;;;;;;;3.20;3.03;;;17.90;99.90;;;;;;4954487;28;20513;-68
2022/07/01 09:49:20;;;;;;;3.53;3.43;;;17.90;99.90;;;;;;4954527;28;20468;-68
2022/07/01 09:51:49;;;;;;;3.53;3.43;;;17.80;99.90;;;;;;4954517;28;20469;-68
2022/07/01 09:54:17;;;;;;;3.80;3.70;;;17.80;99.90;;;;;;4956439;28;20520;-68
2022/07/01 09:56:44;;;;;;;4.50;4.20;;;17.70;99.90;;;;;;4954918;28;20488;-67
2022/07/01 09:59:11;;;;;;;3.23;3.13;;;17.70;99.90;;;;;;4953830;28;20472;-67
2022/07/01 10:01:39;;;;;;;4.00;3.80;;;17.70;99.90;;;;;;4953975;28;20468;-67
2022/07/01 10:04:09;;;;;;;3.43;3.33;;;17.70;99.90;;;;;;4954038;28;20479;-68
2022/07/01 10:07:04;;;;;;;3.87;3.67;;;17.70;99.90;;;;;;4954380;28;20591;-67
2022/07/01 10:09:46;;;;;;;4.27;4.07;;;17.70;99.90;;;;;;4953527;28;20561;-67
2022/07/01 10:12:36;;;;;;;4.70;4.30;;;17.60;99.90;;;;;;4955118;28;20521;-67
2022/07/01 10:17:35;;;;;;;4.07;3.87;;;17.50;99.90;;;;;;4994110;23;20562;-71
2022/07/01 10:20:09;;;;;;;4.73;4.53;;;17.30;99.90;;;;;;4968074;28;20471;-71
2022/07/01 10:22:37;;;;;;;5.10;4.40;;;17.30;99.90;;;;;;4973396;28;20466;-71
2022/07/01 10:25:41;;;;;;;4.97;4.67;;;17.30;99.90;;;;;;4972729;28;20459;-70
2022/07/01 10:28:19;;;;;;;4.43;4.13;;;17.30;99.90;;;;;;4953964;29;21044;-70
2022/07/01 10:30:59;;;;;;;5.60;5.27;;;17.30;99.90;;;;;;4953357;29;20483;-70
2022/07/01 10:33:40;;;;;;;5.40;5.10;;;17.30;99.90;;;;;;4954093;29;20465;-69
2022/07/01 10:36:09;;;;;;;4.87;4.67;;;17.30;99.90;;;;;;4953731;29;20499;-70
2022/07/01 10:38:36;;;;;;;4.57;4.40;;;17.30;99.90;;;;;;4953902;29;20839;-70
2022/07/01 10:41:10;;;;;;;5.17;4.83;;;17.20;99.90;;;;;;4952235;28;20476;-71
2022/07/01 10:43:40;;;;;;;5.63;5.33;;;17.20;99.90;;;;;;4953825;29;20473;-71
2022/07/01 10:46:06;;;;;;;5.87;5.57;;;17.20;99.90;;;;;;4953356;29;20485;-70
2022/07/01 10:48:34;;;;;;;5.77;5.37;;;17.20;99.90;;;;;;4953638;29;20540;-70
2022/07/01 10:51:01;;;;;;;5.50;5.30;;;17.20;99.90;;;;;;4953379;29;20484;-71
2022/07/01 10:53:45;;;;;;;5.53;5.10;;;17.10;99.90;;;;;;4953171;29;20468;-70
2022/07/01 10:56:17;;;;;;;5.80;5.43;;;17.00;99.90;;;;;;4952970;29;20892;-70
2022/07/01 10:58:44;;;;;;;6.20;5.60;;;17.00;99.90;;;;;;4946388;29;20473;-70
2022/07/01 11:01:10;;;;;;;5.50;5.10;;;17.00;99.90;;;;;;4952413;29;20460;-70
2022/07/01 11:03:39;;;;;;;6.10;5.80;;;17.00;99.90;;;;;;4953060;29;20469;-70
2022/07/01 11:06:06;;;;;;;6.47;6.17;;;17.00;99.90;;;;;;4953422;29;20508;-70
2022/07/01 11:08:33;;;;;;;5.87;5.57;;;17.10;99.90;;;;;;4953422;29;20518;-70
2022/07/01 11:11:03;;;;;;;6.50;6.20;;;17.10;99.90;;;;;;4952397;29;20476;-70
2022/07/01 11:13:32;;;;;;;6.20;5.60;;;17.20;99.90;;;;;;4953361;29;20469;-70
2022/07/01 11:16:01;;;;;;;5.90;5.70;;;17.20;99.90;;;;;;4952420;29;20932;-70
2022/07/01 11:18:27;;;;;;;6.93;6.20;;;17.20;99.90;;;;;;4953624;29;20528;-69
2022/07/01 11:21:07;;;;;;;6.77;6.30;;;17.20;99.90;;;;;;4952921;29;20468;-70
2022/07/01 11:23:34;;;;;;;8.03;7.43;;;17.20;99.90;;;;;;4952986;29;20469;-70
2022/07/01 11:26:00;;;;;;;7.90;7.30;;;17.20;99.90;;;;;;4952549;29;20481;-70
2022/07/01 11:28:27;;;;;;;9.30;8.57;;;17.20;99.90;;;;;;4953104;29;20473;-69
2022/07/01 11:31:00;;;;;;;8.60;8.10;;;17.30;99.90;;;;;;4944233;29;20961;-70
2022/07/01 11:33:27;;;;;;;9.00;8.40;;;17.30;99.90;;;;;;4952806;29;20461;-70
2022/07/01 11:41:25;;;;;;;10.37;9.57;;;17.40;99.90;;;;;;4952155;29;20528;-69
2022/07/01 11:43:52;;;;;;;10.63;9.83;;;17.50;99.90;;;;;;4952800;28;20468;-69
2022/07/01 11:46:20;;;;;;;11.73;10.60;;;17.50;99.90;;;;;;4952837;29;20480;-69
2022/07/01 11:48:50;;;;;;;11.03;10.20;;;17.50;99.90;;;;;;4952992;29;20491;-69
2022/07/01 11:51:19;;;;;;;11.57;10.57;;;17.50;99.90;;;;;;4952394;28;20487;-69
2022/07/01 11:53:48;;;;;;;12.53;11.53;;;17.60;99.90;;;;;;4952297;29;20468;-68
2022/07/01 11:56:16;;;;;;;12.27;11.30;;;17.60;99.90;;;;;;4951883;28;20577;-69
2022/07/01 11:58:48;;;;;;;12.80;11.70;;;17.70;99.90;;;;;;4952811;29;20469;-69
2022/07/01 12:01:29;;;;;;;12.20;11.20;;;17.80;99.90;;;;;;4952135;29;20473;-68
2022/07/01 12:03:58;;;;;;;12.10;11.20;;;17.90;99.90;;;;;;4952357;29;20464;-69
2022/07/01 12:06:26;;;;;;;13.27;12.07;;;17.90;99.90;;;;;;4952468;29;20572;-68
2022/07/01 12:08:56;;;;;;;12.83;11.93;;;17.90;99.90;;;;;;4952721;29;20842;-70
2022/07/01 12:11:24;;;;;;;13.70;12.70;;;18.00;99.90;;;;;;4952041;28;20469;-69
2022/07/01 12:13:52;;;;;;;13.37;12.43;;;18.00;99.90;;;;;;4952359;29;20476;-69
2022/07/01 12:16:19;;;;;;;13.37;12.37;;;18.00;99.90;;;;;;4952287;29;20591;-69
2022/07/01 12:18:55;;;;;;;12.93;11.93;;;18.00;99.90;;;;;;4952153;29;20476;-69
2022/07/01 12:21:22;;;;;;;14.20;13.00;;;18.10;99.90;;;;;;4949611;29;20460;-69
2022/07/01 12:24:10;;;;;;;12.77;11.77;;;18.10;99.90;;;;;;4952418;29;21128;-69
2022/07/01 12:26:48;;;;;;;13.83;12.50;;;18.20;99.90;;;;;;4952462;29;20487;-69
2022/07/01 12:29:16;;;;;;;14.50;13.30;;;18.20;99.90;;;;;;4951883;29;20468;-70
2022/07/01 12:31:44;;;;;;;13.93;12.73;;;18.30;99.90;;;;;;4952021;29;20471;-67
2022/07/01 12:34:12;;;;;;;14.13;12.90;;;18.30;99.90;;;;;;4952821;29;20938;-70
2022/07/01 12:36:48;;;;;;;13.33;12.23;;;18.30;99.90;;;;;;4953015;29;20516;-70
2022/07/01 12:39:15;;;;;;;13.70;12.60;;;18.40;99.90;;;;;;4952578;28;20886;-70
2022/07/01 12:41:50;;;;;;;12.80;11.70;;;18.40;99.90;;;;;;4953438;29;20476;-70
2022/07/01 12:44:24;;;;;;;14.27;12.97;;;18.50;99.90;;;;;;4952482;28;20468;-69
2022/07/01 12:46:51;;;;;;;13.70;12.60;;;18.60;99.90;;;;;;4952727;29;20492;-71
2022/07/01 12:49:24;;;;;;;13.03;12.00;;;18.70;99.90;;;;;;4952015;29;20475;-69
2022/07/01 12:51:51;;;;;;;13.10;12.10;;;18.80;99.90;;;;;;4952237;29;20468;-69
2022/07/01 12:54:31;;;;;;;12.83;11.57;;;19.00;99.90;;;;;;4951552;29;20469;-69
2022/07/01 12:56:59;;;;;;;12.03;11.23;;;19.10;99.90;;;;;;4951975;28;20492;-69
2022/07/01 12:59:26;;;;;;;12.70;11.83;;;19.20;99.90;;;;;;4944097;29;20479;-69
2022/07/01 13:01:53;;;;;;;12.90;11.90;;;19.30;99.90;;;;;;4951879;29;20491;-69
2022/07/01 13:04:26;;;;;;;11.50;10.80;;;19.30;99.90;;;;;;4954143;28;20540;-70
2022/07/01 13:06:53;;;;;;;12.00;11.10;;;19.30;99.90;;;;;;4955991;29;20507;-69
2022/07/01 13:09:20;;;;;;;11.30;10.60;;;19.30;99.90;;;;;;4955525;29;20464;-69
2022/07/01 13:11:47;;;;;;;11.47;10.67;;;19.50;99.90;;;;;;4955928;29;20464;-69
2022/07/01 13:14:14;;;;;;;13.07;11.87;;;19.60;99.90;;;;;;4954824;29;20473;-69
2022/07/01 13:16:40;;;;;;;12.43;11.57;;;19.80;99.90;;;;;;4955171;29;21036;-69
2022/07/01 13:19:07;;;;;;;10.80;10.00;;;19.90;99.90;;;;;;4955218;29;20973;-69
2022/07/01 13:21:35;;;;;;;11.67;10.57;;;20.00;99.90;;;;;;4955020;29;20547;-69
2022/07/01 13:24:02;;;;;;;9.07;8.57;;;19.90;99.90;;;;;;4954842;29;20464;-69
2022/07/01 13:26:29;;;;;;;9.97;9.27;;;19.70;99.90;;;;;;4954805;29;20480;-69
2022/07/01 13:28:55;;;;;;;11.17;10.30;;;19.80;99.90;;;;;;4955098;28;20807;-69
2022/07/01 13:31:22;;;;;;;10.27;9.67;;;19.90;99.90;;;;;;4947115;29;20469;-69
2022/07/01 13:33:49;;;;;;;10.27;9.70;;;19.80;99.90;;;;;;4954920;29;20831;-68
2022/07/01 13:36:16;;;;;;;9.90;9.30;;;19.80;99.90;;;;;;4954948;29;20500;-69
2022/07/01 13:38:44;;;;;;;11.20;10.40;;;19.90;99.90;;;;;;4954900;29;20469;-69
2022/07/01 13:41:11;;;;;;;11.97;11.20;;;19.90;99.90;;;;;;4954350;29;20465;-68
2022/07/01 13:43:37;;;;;;;11.20;10.50;;;20.00;99.90;;;;;;4955140;29;20469;-69
2022/07/01 13:46:04;;;;;;;13.10;12.20;;;20.10;99.90;;;;;;4954433;29;20491;-69
2022/07/01 13:48:31;;;;;;;12.77;11.77;;;20.20;99.90;;;;;;4954896;29;20468;-69
2022/07/01 13:50:58;;;;;;;11.70;10.90;;;20.20;99.90;;;;;;4954382;29;20801;-69
2022/07/01 13:53:25;;;;;;;11.60;10.60;;;20.00;99.90;;;;;;4954412;29;20474;-70
2022/07/01 13:55:53;;;;;;;12.27;11.37;;;20.10;99.90;;;;;;4953926;29;20579;-70
2022/07/01 13:58:19;;;;;;;12.30;11.40;;;20.20;99.90;;;;;;4954457;29;20464;-71
2022/07/01 14:00:46;;;;;;;10.53;9.93;;;20.30;99.90;;;;;;4953742;29;20465;-70
2022/07/01 14:03:13;;;;;;;10.53;9.93;;;20.40;99.90;;;;;;4954678;29;20491;-71
2022/07/01 14:05:40;;;;;;;12.93;10.40;;;20.40;99.90;;;;;;4954323;29;20488;-71
2022/07/01 14:08:06;;;;;;;9.80;9.17;;;20.30;99.90;;;;;;4954375;29;20472;-70
2022/07/01 14:10:35;;;;;;;9.80;9.23;;;20.30;99.90;;;;;;4953737;29;20471;-69
2022/07/01 14:13:04;;;;;;;9.43;8.83;;;20.40;99.90;;;;;;4954168;29;20567;-70
2022/07/01 14:15:30;;;;;;;10.90;10.07;;;20.40;99.90;;;;;;4953321;28;20501;-70
2022/07/01 14:17:57;;;;;;;9.70;8.90;;;20.50;99.90;;;;;;4954265;29;20480;-71
2022/07/01 14:20:24;;;;;;;9.70;9.10;;;20.60;99.90;;;;;;4947694;29;20572;-71
2022/07/01 14:22:53;;;;;;;9.70;9.10;;;20.60;99.90;;;;;;4954276;29;20811;-71
2022/07/01 14:25:20;;;;;;;8.47;8.03;;;20.50;99.90;;;;;;4953690;29;20623;-71
2022/07/01 14:27:46;;;;;;;10.43;9.83;;;20.40;99.90;;;;;;4954145;29;20471;-71
2022/07/01 14:30:15;;;;;;;10.33;9.80;;;20.20;99.90;;;;;;4953248;29;20472;-71
2022/07/01 14:32:41;;;;;;;10.60;9.93;;;20.10;99.90;;;;;;4954161;29;20469;-70
2022/07/01 14:35:09;;;;;;;11.53;10.70;;;20.10;99.90;;;;;;4953556;28;20461;-70
2022/07/01 14:37:38;;;;;;;10.50;9.30;;;19.90;99.90;;;;;;4953849;29;20496;-70
2022/07/01 14:40:06;;;;;;;9.37;8.87;;;19.90;99.90;;;;;;4952657;29;20856;-70
2022/07/01 14:42:33;;;;;;;12.07;10.90;;;19.80;99.90;;;;;;4953376;29;20471;-70
2022/07/01 14:45:00;;;;;;;9.73;9.13;;;19.80;99.90;;;;;;4952883;29;20469;-70
2022/07/01 14:47:29;;;;;;;12.33;11.30;;;19.70;99.90;;;;;;4953673;29;20485;-70
2022/07/01 14:49:56;;;;;;;11.63;10.93;;;19.70;99.90;;;;;;4953282;29;20471;-71
2022/07/01 14:52:23;;;;;;;10.97;10.27;;;19.60;99.90;;;;;;4953539;29;20832;-71
2022/07/01 14:54:51;;;;;;;11.60;10.80;;;19.60;99.90;;;;;;4952771;29;20563;-71
2022/07/01 14:57:18;;;;;;;10.60;9.90;;;19.50;99.90;;;;;;4953579;29;20500;-70
2022/07/01 14:59:44;;;;;;;11.03;10.13;;;19.50;99.90;;;;;;4945814;29;20538;-71
2022/07/01 15:02:11;;;;;;;10.93;10.30;;;19.50;99.90;;;;;;4953540;29;20464;-71
2022/07/01 15:04:40;;;;;;;12.10;11.30;;;19.50;99.90;;;;;;4953165;29;20464;-71
2022/07/01 15:07:07;;;;;;;10.93;10.20;;;19.60;99.90;;;;;;4953410;29;20492;-71
2022/07/01 15:09:34;;;;;;;11.23;10.53;;;19.70;99.90;;;;;;4952272;29;20464;-70
2022/07/01 15:12:01;;;;;;;11.50;10.80;;;19.70;99.90;;;;;;4953259;29;20468;-71
2022/07/01 15:14:29;;;;;;;11.70;10.70;;;19.80;99.90;;;;;;4952334;29;20962;-71
2022/07/01 15:16:55;;;;;;;10.87;10.17;;;19.90;99.90;;;;;;4952929;29;20704;-71
2022/07/01 15:19:22;;;;;;;11.47;10.67;;;20.00;99.90;;;;;;4953294;29;20469;-70
2022/07/01 15:21:50;;;;;;;11.53;10.73;;;20.20;99.90;;;;;;4952891;29;20484;-70
2022/07/01 15:24:17;;;;;;;10.70;10.10;;;20.30;99.90;;;;;;4951986;29;20465;-71
2022/07/01 15:26:44;;;;;;;11.27;10.57;;;20.30;99.90;;;;;;4952514;28;20486;-70
2022/07/01 15:29:11;;;;;;;11.67;10.67;;;20.40;99.90;;;;;;4952686;29;20559;-70
2022/07/01 15:31:37;;;;;;;11.20;10.50;;;20.40;99.90;;;;;;4952628;29;20469;-71
2022/07/01 15:34:04;;;;;;;12.37;11.57;;;20.40;99.90;;;;;;4952535;29;20464;-70
2022/07/01 15:36:31;;;;;;;12.37;11.47;;;20.40;99.90;;;;;;4952591;29;20488;-70
2022/07/01 15:39:00;;;;;;;11.87;11.17;;;20.40;99.90;;;;;;4952613;29;20477;-71
2022/07/01 15:41:27;;;;;;;14.73;13.70;;;20.40;99.90;;;;;;4951935;29;20469;-70
2022/07/01 15:43:54;;;;;;;12.23;11.43;;;20.40;99.90;;;;;;4952123;29;21025;-71
2022/07/01 15:46:21;;;;;;;12.30;11.50;;;20.50;99.90;;;;;;4952639;29;20485;-71
2022/07/01 15:48:48;;;;;;;12.27;11.37;;;20.50;99.90;;;;;;4949803;29;20465;-70
2022/07/01 15:51:15;;;;;;;11.27;10.57;;;20.40;99.90;;;;;;4952496;29;20479;-71
2022/07/01 15:53:42;;;;;;;13.27;12.27;;;20.30;99.90;;;;;;4952466;29;20490;-70
2022/07/01 15:56:11;;;;;;;12.40;11.60;;;20.30;99.90;;;;;;4951844;29;20997;-70
2022/07/01 15:58:37;;;;;;;12.10;11.20;;;20.20;99.90;;;;;;4952511;29;20928;-70
2022/07/01 16:01:04;;;;;;;12.80;11.90;;;20.20;99.90;;;;;;4951941;29;20469;-70
2022/07/01 16:03:31;;;;;;;12.70;11.90;;;20.10;99.90;;;;;;4952423;29;20472;-70
2022/07/01 16:06:03;;;;;;;12.90;11.97;;;20.20;99.90;;;;;;4952217;29;20495;-69
2022/07/01 16:08:33;;;;;;;12.30;11.40;;;20.10;99.90;;;;;;4952665;29;20472;-70
2022/07/01 16:11:07;;;;;;;11.90;11.10;;;20.20;99.90;;;;;;4951761;29;20468;-69
2022/07/01 16:13:37;;;;;;;11.20;10.50;;;20.20;99.90;;;;;;4952576;28;20474;-69
2022/07/01 16:16:06;;;;;;;12.10;11.20;;;20.30;99.90;;;;;;4976959;23;20503;-68
2022/07/01 16:18:34;;;;;;;11.80;11.00;;;20.40;99.90;;;;;;4971835;28;20551;-68
2022/07/01 16:21:03;;;;;;;12.70;11.80;;;20.50;99.90;;;;;;4965711;28;20450;-68
2022/07/01 16:23:33;;;;;;;11.70;10.90;;;20.50;99.90;;;;;;4971377;28;20574;-68
2022/07/01 16:26:01;;;;;;;11.93;11.13;;;20.50;99.90;;;;;;4971003;28;20979;-68
2022/07/01 16:28:30;;;;;;;12.23;11.43;;;20.50;99.90;;;;;;4971479;28;20468;-68
2022/07/01 16:30:59;;;;;;;11.47;10.67;;;20.50;99.90;;;;;;4970550;28;20486;-68
2022/07/01 16:33:26;;;;;;;11.80;11.00;;;20.60;99.90;;;;;;4971344;28;20967;-68
2022/07/01 16:36:01;;;;;;;12.47;11.70;;;20.60;99.90;;;;;;4971430;28;20463;-68
2022/07/01 16:38:32;;;;;;;12.43;11.47;;;20.50;99.90;;;;;;4972331;28;20539;-68
2022/07/01 16:41:03;;;;;;;11.10;10.40;;;20.50;99.90;;;;;;4974747;28;20551;-68
2022/07/01 16:43:36;;;;;;;11.80;10.80;;;20.50;99.90;;;;;;4975220;28;20523;-68
2022/07/01 16:46:06;;;;;;;11.67;10.80;;;20.50;99.90;;;;;;4974716;28;20467;-68
2022/07/01 16:48:33;;;;;;;11.80;11.00;;;20.50;99.90;;;;;;4975078;28;20467;-68
2022/07/01 16:51:03;;;;;;;11.57;10.80;;;20.50;99.90;;;;;;4977161;28;20490;-68
2022/07/01 16:53:37;;;;;;;11.80;11.00;;;20.40;99.90;;;;;;4974691;28;20467;-68
2022/07/01 16:56:05;;;;;;;11.03;10.23;;;20.30;99.90;;;;;;4974159;28;20854;-68
2022/07/01 16:58:34;;;;;;;12.10;11.17;;;20.20;99.90;;;;;;4975002;28;20552;-68
2022/07/01 17:01:01;;;;;;;11.73;10.87;;;20.20;99.90;;;;;;4974203;28;20853;-68
2022/07/01 17:03:32;;;;;;;11.87;11.07;;;20.20;99.90;;;;;;4974792;28;20980;-68